sensor_id;sensor_type;location;lat;lon;timestamp;pressure;altitude;pressure_sealevel;temperature;humidity
81704;BME280;71117;52.352;4.808;2023-07-30T00:02:17;100912.22;;;16.22;83.21
81704;BME280;71117;52.352;4.808;2023-07-30T00:04:43;100906.03;;;16.14;83.90
81704;BME280;71117;52.352;4.808;2023-07-30T00:07:09;100917.56;;;16.13;84.00
81704;BME280;71117;52.352;4.808;2023-07-30T00:09:34;100918.44;;;16.18;82.90
81704;BME280;71117;52.352;4.808;2023-07-30T00:11:59;100922.84;;;16.30;83.16
81704;BME280;71117;52.352;4.808;2023-07-30T00:14:27;100928.16;;;16.27;83.04
81704;BME280;71117;52.352;4.808;2023-07-30T00:16:52;100921.91;;;16.32;82.60
81704;BME280;71117;52.352;4.808;2023-07-30T00:19:17;100922.78;;;16.39;82.92
81704;BME280;71117;52.352;4.808;2023-07-30T00:21:43;100917.44;;;16.42;82.40
81704;BME280;71117;52.352;4.808;2023-07-30T00:24:11;100917.41;;;16.51;81.94
81704;BME280;71117;52.352;4.808;2023-07-30T00:26:36;100914.72;;;16.48;82.55
81704;BME280;71117;52.352;4.808;2023-07-30T00:29:03;100919.16;;;16.52;81.89
81704;BME280;71117;52.352;4.808;2023-07-30T00:31:29;100912.94;;;16.56;81.83
81704;BME280;71117;52.352;4.808;2023-07-30T00:33:54;100920.88;;;16.61;81.67
81704;BME280;71117;52.352;4.808;2023-07-30T00:36:20;100917.31;;;16.65;81.61
81704;BME280;71117;52.352;4.808;2023-07-30T00:38:45;100924.47;;;16.55;81.84
81704;BME280;71117;52.352;4.808;2023-07-30T00:41:10;100920.91;;;16.58;82.37
81704;BME280;71117;52.352;4.808;2023-07-30T00:43:36;100925.34;;;16.59;81.85
81704;BME280;71117;52.352;4.808;2023-07-30T00:46:01;100923.59;;;16.53;82.30
81704;BME280;71117;52.352;4.808;2023-07-30T00:48:29;100928.00;;;16.62;81.79
81704;BME280;71117;52.352;4.808;2023-07-30T00:50:55;100936.03;;;16.53;82.63
81704;BME280;71117;52.352;4.808;2023-07-30T00:53:22;100928.97;;;16.47;83.08
81704;BME280;71117;52.352;4.808;2023-07-30T00:55:48;100920.94;;;16.49;82.57
81704;BME280;71117;52.352;4.808;2023-07-30T00:58:15;100928.91;;;16.55;82.75
81704;BME280;71117;52.352;4.808;2023-07-30T01:00:41;100931.56;;;16.58;82.60
81704;BME280;71117;52.352;4.808;2023-07-30T01:03:07;100932.41;;;16.64;82.54
81704;BME280;71117;52.352;4.808;2023-07-30T01:05:33;100927.06;;;16.69;82.03
81704;BME280;71117;52.352;4.808;2023-07-30T01:07:58;100927.06;;;16.67;82.14
81704;BME280;71117;52.352;4.808;2023-07-30T01:10:24;100937.75;;;16.71;82.36
81704;BME280;71117;52.352;4.808;2023-07-30T01:12:51;100935.94;;;16.74;82.56
81704;BME280;71117;52.352;4.808;2023-07-30T01:15:17;100930.63;;;16.74;82.83
81704;BME280;71117;52.352;4.808;2023-07-30T01:17:42;100937.72;;;16.75;82.33
81704;BME280;71117;52.352;4.808;2023-07-30T01:20:08;100936.81;;;16.78;82.20
81704;BME280;71117;52.352;4.808;2023-07-30T01:22:35;100936.84;;;16.73;82.64
81704;BME280;71117;52.352;4.808;2023-07-30T01:25:01;100935.06;;;16.74;82.91
81704;BME280;71117;52.352;4.808;2023-07-30T01:27:29;100939.50;;;16.75;83.01
81704;BME280;71117;52.352;4.808;2023-07-30T01:32:26;100943.06;;;16.71;82.90
81704;BME280;71117;52.352;4.808;2023-07-30T01:34:54;100947.47;;;16.79;82.21
81704;BME280;71117;52.352;4.808;2023-07-30T01:37:20;100943.91;;;16.77;82.79
81704;BME280;71117;52.352;4.808;2023-07-30T01:39:48;100943.03;;;16.78;83.02
81704;BME280;71117;52.352;4.808;2023-07-30T01:42:13;100937.72;;;16.78;82.40
81704;BME280;71117;52.352;4.808;2023-07-30T01:44:39;100940.31;;;16.86;82.60
81704;BME280;71117;52.352;4.808;2023-07-30T01:47:04;100933.19;;;16.89;82.31
81704;BME280;71117;52.352;4.808;2023-07-30T01:49:30;100943.81;;;16.96;81.87
81704;BME280;71117;52.352;4.808;2023-07-30T01:51:55;100939.38;;;16.93;82.04
81704;BME280;71117;52.352;4.808;2023-07-30T01:54:20;100939.34;;;16.95;82.00
81704;BME280;71117;52.352;4.808;2023-07-30T01:56:46;100942.00;;;16.99;81.59
81704;BME280;71117;52.352;4.808;2023-07-30T01:59:11;100945.56;;;16.98;81.30
81704;BME280;71117;52.352;4.808;2023-07-30T02:01:36;100943.69;;;17.09;80.97
81704;BME280;71117;52.352;4.808;2023-07-30T02:04:02;100951.75;;;17.00;81.39
81704;BME280;71117;52.352;4.808;2023-07-30T02:06:27;100944.63;;;17.04;81.43
81704;BME280;71117;52.352;4.808;2023-07-30T02:08:52;100941.97;;;17.04;81.22
81704;BME280;71117;52.352;4.808;2023-07-30T02:11:18;100946.44;;;16.99;81.77
81704;BME280;71117;52.352;4.808;2023-07-30T02:13:43;100947.34;;;16.98;81.69
81704;BME280;71117;52.352;4.808;2023-07-30T02:16:08;100940.19;;;17.03;81.21
81704;BME280;71117;52.352;4.808;2023-07-30T02:18:34;100949.09;;;17.03;81.52
81704;BME280;71117;52.352;4.808;2023-07-30T02:20:59;100946.47;;;16.97;81.80
81704;BME280;71117;52.352;4.808;2023-07-30T02:23:24;100939.31;;;17.04;81.13
81704;BME280;71117;52.352;4.808;2023-07-30T02:25:50;100927.75;;;17.00;81.04
81704;BME280;71117;52.352;4.808;2023-07-30T02:28:15;100942.00;;;16.99;81.44
81704;BME280;71117;52.352;4.808;2023-07-30T02:30:40;100941.09;;;17.03;80.74
81704;BME280;71117;52.352;4.808;2023-07-30T02:33:06;100941.91;;;17.10;80.60
81704;BME280;71117;52.352;4.808;2023-07-30T02:35:31;100934.00;;;17.01;80.93
81704;BME280;71117;52.352;4.808;2023-07-30T02:37:56;100930.47;;;16.96;80.72
81704;BME280;71117;52.352;4.808;2023-07-30T02:40:22;100935.78;;;17.02;80.24
81704;BME280;71117;52.352;4.808;2023-07-30T02:42:47;100935.75;;;17.03;80.20
81704;BME280;71117;52.352;4.808;2023-07-30T02:45:13;100931.34;;;17.01;80.71
81704;BME280;71117;52.352;4.808;2023-07-30T02:47:38;100926.88;;;17.03;80.11
81704;BME280;71117;52.352;4.808;2023-07-30T02:50:04;100926.00;;;16.98;80.34
81704;BME280;71117;52.352;4.808;2023-07-30T02:52:30;100924.25;;;16.93;80.20
81704;BME280;71117;52.352;4.808;2023-07-30T02:54:55;100926.91;;;16.93;79.35
81704;BME280;71117;52.352;4.808;2023-07-30T02:57:20;100926.06;;;16.91;80.57
81704;BME280;71117;52.352;4.808;2023-07-30T02:59:46;100934.03;;;16.93;79.95
81704;BME280;71117;52.352;4.808;2023-07-30T03:02:11;100929.59;;;16.95;79.14
81704;BME280;71117;52.352;4.808;2023-07-30T03:04:36;100929.56;;;17.01;78.12
81704;BME280;71117;52.352;4.808;2023-07-30T03:07:02;100933.94;;;17.05;78.13
81704;BME280;71117;52.352;4.808;2023-07-30T03:09:27;100931.28;;;17.04;77.88
81704;BME280;71117;52.352;4.808;2023-07-30T03:11:53;100933.94;;;17.08;77.75
81704;BME280;71117;52.352;4.808;2023-07-30T03:14:19;100940.13;;;17.10;77.30
81704;BME280;71117;52.352;4.808;2023-07-30T03:16:48;100932.13;;;17.10;76.80
81704;BME280;71117;52.352;4.808;2023-07-30T03:19:14;100932.16;;;17.07;77.00
81704;BME280;71117;52.352;4.808;2023-07-30T03:21:41;100944.53;;;17.16;73.23
81704;BME280;71117;52.352;4.808;2023-07-30T03:24:06;100940.97;;;17.18;71.50
81704;BME280;71117;52.352;4.808;2023-07-30T03:26:31;100940.13;;;17.13;69.96
81704;BME280;71117;52.352;4.808;2023-07-30T03:28:57;100945.47;;;17.13;70.03
81704;BME280;71117;52.352;4.808;2023-07-30T03:31:22;100947.22;;;17.16;67.11
81704;BME280;71117;52.352;4.808;2023-07-30T03:33:47;100953.44;;;17.18;65.63
81704;BME280;71117;52.352;4.808;2023-07-30T03:36:13;100940.97;;;17.17;65.07
81704;BME280;71117;52.352;4.808;2023-07-30T03:38:39;100945.41;;;17.16;64.46
81704;BME280;71117;52.352;4.808;2023-07-30T03:41:05;100941.03;;;17.12;64.59
81704;BME280;71117;52.352;4.808;2023-07-30T03:43:34;100945.41;;;17.16;63.38
81704;BME280;71117;52.352;4.808;2023-07-30T03:46:00;100946.44;;;17.02;64.28
81704;BME280;71117;52.352;4.808;2023-07-30T03:48:25;100947.31;;;17.04;64.19
81704;BME280;71117;52.352;4.808;2023-07-30T03:50:52;100955.34;;;17.01;64.38
81704;BME280;71117;52.352;4.808;2023-07-30T03:53:17;100955.31;;;17.04;63.96
81704;BME280;71117;52.352;4.808;2023-07-30T03:55:43;100952.63;;;17.04;64.09
81704;BME280;71117;52.352;4.808;2023-07-30T03:58:08;100953.50;;;17.06;63.52
81704;BME280;71117;52.352;4.808;2023-07-30T04:00:33;100951.75;;;17.06;62.90
81704;BME280;71117;52.352;4.808;2023-07-30T04:02:59;100953.56;;;16.98;63.72
81704;BME280;71117;52.352;4.808;2023-07-30T04:05:24;100957.16;;;16.94;63.65
81704;BME280;71117;52.352;4.808;2023-07-30T04:07:50;100961.59;;;16.93;63.79
81704;BME280;71117;52.352;4.808;2023-07-30T04:10:15;100958.06;;;16.88;63.69
81704;BME280;71117;52.352;4.808;2023-07-30T04:12:40;100959.00;;;16.83;63.62
81704;BME280;71117;52.352;4.808;2023-07-30T04:15:08;100951.00;;;16.86;63.08
81704;BME280;71117;52.352;4.808;2023-07-30T04:17:35;100950.13;;;16.82;62.98
81704;BME280;71117;52.352;4.808;2023-07-30T04:20:01;100959.03;;;16.80;63.48
81704;BME280;71117;52.352;4.808;2023-07-30T04:22:26;100959.94;;;16.76;64.07
81704;BME280;71117;52.352;4.808;2023-07-30T04:24:51;100959.06;;;16.75;63.94
81704;BME280;71117;52.352;4.808;2023-07-30T04:27:17;100958.19;;;16.69;64.65
81704;BME280;71117;52.352;4.808;2023-07-30T04:29:42;100957.28;;;16.66;63.80
81704;BME280;71117;52.352;4.808;2023-07-30T04:32:08;100959.94;;;16.79;62.46
81704;BME280;71117;52.352;4.808;2023-07-30T04:34:33;100961.75;;;16.74;63.19
81704;BME280;71117;52.352;4.808;2023-07-30T04:36:58;100949.28;;;16.71;63.46
81704;BME280;71117;52.352;4.808;2023-07-30T04:39:24;100959.06;;;16.69;63.25
81704;BME280;71117;52.352;4.808;2023-07-30T04:41:49;100957.28;;;16.66;63.81
81704;BME280;71117;52.352;4.808;2023-07-30T04:44:14;100956.41;;;16.66;63.26
81704;BME280;71117;52.352;4.808;2023-07-30T04:46:40;100959.13;;;16.61;63.46
81704;BME280;71117;52.352;4.808;2023-07-30T04:49:05;100959.06;;;16.64;62.90
81704;BME280;71117;52.352;4.808;2023-07-30T04:51:30;100960.84;;;16.73;62.67
81704;BME280;71117;52.352;4.808;2023-07-30T04:53:56;100961.69;;;16.77;61.96
81704;BME280;71117;52.352;4.808;2023-07-30T04:56:21;100959.94;;;16.79;61.99
81704;BME280;71117;52.352;4.808;2023-07-30T04:58:46;100961.69;;;16.77;62.45
81704;BME280;71117;52.352;4.808;2023-07-30T05:01:12;100973.28;;;16.79;62.99
81704;BME280;71117;52.352;4.808;2023-07-30T05:03:37;100966.13;;;16.78;63.03
81704;BME280;71117;52.352;4.808;2023-07-30T05:06:02;100970.59;;;16.77;63.28
81704;BME280;71117;52.352;4.808;2023-07-30T05:08:28;100974.13;;;16.81;63.23
81704;BME280;71117;52.352;4.808;2023-07-30T05:10:53;100975.06;;;16.75;64.08
81704;BME280;71117;52.352;4.808;2023-07-30T05:13:18;100965.28;;;16.76;63.70
81704;BME280;71117;52.352;4.808;2023-07-30T05:15:44;100974.09;;;16.87;64.01
81704;BME280;71117;52.352;4.808;2023-07-30T05:18:09;100971.41;;;16.90;64.35
81704;BME280;71117;52.352;4.808;2023-07-30T05:20:35;100974.88;;;17.04;64.48
81704;BME280;71117;52.352;4.808;2023-07-30T05:23:00;100974.84;;;17.06;65.32
81704;BME280;71117;52.352;4.808;2023-07-30T05:25:27;100969.47;;;17.10;64.50
81704;BME280;71117;52.352;4.808;2023-07-30T05:27:52;100968.59;;;17.13;64.37
81704;BME280;71117;52.352;4.808;2023-07-30T05:30:19;100970.34;;;17.14;64.93
81704;BME280;71117;52.352;4.808;2023-07-30T05:32:44;100973.97;;;17.08;66.04
81704;BME280;71117;52.352;4.808;2023-07-30T05:35:10;100967.69;;;17.14;65.50
81704;BME280;71117;52.352;4.808;2023-07-30T05:37:35;100973.88;;;17.21;65.74
81704;BME280;71117;52.352;4.808;2023-07-30T05:40:00;100960.41;;;17.33;65.78
81704;BME280;71117;52.352;4.808;2023-07-30T05:42:26;100957.78;;;17.30;65.58
81704;BME280;71117;52.352;4.808;2023-07-30T05:44:51;100964.84;;;17.34;65.68
81704;BME280;71117;52.352;4.808;2023-07-30T05:47:17;100960.44;;;17.31;66.05
81704;BME280;71117;52.352;4.808;2023-07-30T05:49:42;100959.41;;;17.44;65.40
81704;BME280;71117;52.352;4.808;2023-07-30T05:52:08;100959.34;;;17.54;65.77
81704;BME280;71117;52.352;4.808;2023-07-30T05:54:33;100968.25;;;17.53;65.78
81704;BME280;71117;52.352;4.808;2023-07-30T05:56:58;100961.97;;;17.60;65.51
81704;BME280;71117;52.352;4.808;2023-07-30T05:59:24;100957.50;;;17.60;65.31
81704;BME280;71117;52.352;4.808;2023-07-30T06:01:49;100969.88;;;17.72;64.75
81704;BME280;71117;52.352;4.808;2023-07-30T06:04:14;100971.63;;;17.76;64.45
81704;BME280;71117;52.352;4.808;2023-07-30T06:06:40;100963.69;;;17.65;65.83
81704;BME280;71117;52.352;4.808;2023-07-30T06:09:05;100966.25;;;17.78;64.50
81704;BME280;71117;52.352;4.808;2023-07-30T06:11:30;100968.09;;;17.69;65.51
81704;BME280;71117;52.352;4.808;2023-07-30T06:13:57;100971.75;;;17.59;66.15
81704;BME280;71117;52.352;4.808;2023-07-30T06:16:22;100974.41;;;17.61;65.84
81704;BME280;71117;52.352;4.808;2023-07-30T06:18:47;100972.56;;;17.66;64.84
81704;BME280;71117;52.352;4.808;2023-07-30T06:21:13;100972.50;;;17.78;65.38
81704;BME280;71117;52.352;4.808;2023-07-30T06:23:38;100974.13;;;17.93;64.72
81704;BME280;71117;52.352;4.808;2023-07-30T06:26:04;100971.38;;;18.02;64.36
81704;BME280;71117;52.352;4.808;2023-07-30T06:28:29;100977.47;;;18.12;63.74
81704;BME280;71117;52.352;4.808;2023-07-30T06:30:54;100970.28;;;18.17;63.30
81704;BME280;71117;52.352;4.808;2023-07-30T06:33:20;100968.47;;;18.20;62.68
81704;BME280;71117;52.352;4.808;2023-07-30T06:35:45;100973.91;;;18.11;63.94
81704;BME280;71117;52.352;4.808;2023-07-30T06:38:11;100971.25;;;18.13;63.90
81704;BME280;71117;52.352;4.808;2023-07-30T06:40:36;100969.47;;;18.12;63.31
81704;BME280;71117;52.352;4.808;2023-07-30T06:43:01;100981.97;;;18.10;63.67
81704;BME280;71117;52.352;4.808;2023-07-30T06:45:27;100974.81;;;18.10;63.77
81704;BME280;71117;52.352;4.808;2023-07-30T06:47:53;100973.97;;;18.08;64.12
81704;BME280;71117;52.352;4.808;2023-07-30T06:50:18;100981.19;;;18.02;64.50
81704;BME280;71117;52.352;4.808;2023-07-30T06:52:45;100977.69;;;17.93;65.47
81704;BME280;71117;52.352;4.808;2023-07-30T06:55:10;100981.16;;;18.00;64.80
81704;BME280;71117;52.352;4.808;2023-07-30T06:57:35;100973.19;;;17.98;64.94
81704;BME280;71117;52.352;4.808;2023-07-30T07:00:01;100976.63;;;18.10;63.79
81704;BME280;71117;52.352;4.808;2023-07-30T07:02:27;100974.75;;;18.19;63.38
81704;BME280;71117;52.352;4.808;2023-07-30T07:04:53;100962.19;;;18.23;63.26
81704;BME280;71117;52.352;4.808;2023-07-30T07:07:20;100962.19;;;18.23;63.45
81704;BME280;71117;52.352;4.808;2023-07-30T07:09:46;100971.03;;;18.28;63.29
81704;BME280;71117;52.352;4.808;2023-07-30T07:12:11;100969.25;;;18.29;63.25
81704;BME280;71117;52.352;4.808;2023-07-30T07:14:37;100981.78;;;18.27;63.35
81704;BME280;71117;52.352;4.808;2023-07-30T07:17:02;100986.28;;;18.21;63.51
81704;BME280;71117;52.352;4.808;2023-07-30T07:19:28;100982.88;;;18.06;64.24
81704;BME280;71117;52.352;4.808;2023-07-30T07:21:53;100989.28;;;17.89;64.47
81704;BME280;71117;52.352;4.808;2023-07-30T07:24:19;100987.50;;;17.90;64.19
81704;BME280;71117;52.352;4.808;2023-07-30T07:26:44;100999.94;;;17.97;65.03
81704;BME280;71117;52.352;4.808;2023-07-30T07:29:10;100996.31;;;18.03;65.35
81704;BME280;71117;52.352;4.808;2023-07-30T07:31:35;101003.34;;;18.10;65.99
81704;BME280;71117;52.352;4.808;2023-07-30T07:34:01;101009.47;;;18.18;66.54
81704;BME280;71117;52.352;4.808;2023-07-30T07:36:26;101002.38;;;18.18;65.83
81704;BME280;71117;52.352;4.808;2023-07-30T07:38:51;101006.78;;;18.21;65.87
81704;BME280;71117;52.352;4.808;2023-07-30T07:41:17;101008.56;;;18.20;65.55
81704;BME280;71117;52.352;4.808;2023-07-30T07:43:47;101004.97;;;18.23;65.56
81704;BME280;71117;52.352;4.808;2023-07-30T07:46:13;101013.91;;;18.22;65.63
81704;BME280;71117;52.352;4.808;2023-07-30T07:48:40;101012.09;;;18.22;65.01
81704;BME280;71117;52.352;4.808;2023-07-30T07:51:06;101020.22;;;18.15;64.73
81704;BME280;71117;52.352;4.808;2023-07-30T07:53:31;101023.00;;;18.04;65.14
81704;BME280;71117;52.352;4.808;2023-07-30T07:55:57;101033.78;;;17.96;65.77
81704;BME280;71117;52.352;4.808;2023-07-30T07:58:22;101041.06;;;17.78;69.99
81704;BME280;71117;52.352;4.808;2023-07-30T08:00:47;101033.50;;;17.18;73.62
81704;BME280;71117;52.352;4.808;2023-07-30T08:03:13;101033.72;;;16.80;73.83
81704;BME280;71117;52.352;4.808;2023-07-30T08:05:38;101039.97;;;16.68;74.48
81704;BME280;71117;52.352;4.808;2023-07-30T08:08:03;101048.00;;;16.57;75.45
81704;BME280;71117;52.352;4.808;2023-07-30T08:10:29;101053.31;;;16.57;75.55
81704;BME280;71117;52.352;4.808;2023-07-30T08:12:54;101041.78;;;16.49;76.90
81704;BME280;71117;52.352;4.808;2023-07-30T08:15:19;101051.56;;;16.56;75.29
81704;BME280;71117;52.352;4.808;2023-07-30T08:17:45;101040.91;;;16.53;73.97
81704;BME280;71117;52.352;4.808;2023-07-30T08:20:10;101040.84;;;16.61;72.78
81704;BME280;71117;52.352;4.808;2023-07-30T08:22:36;101041.75;;;16.63;73.69
81704;BME280;71117;52.352;4.808;2023-07-30T08:25:02;101034.59;;;16.66;73.14
81704;BME280;71117;52.352;4.808;2023-07-30T08:27:28;101038.09;;;16.90;72.26
81704;BME280;71117;52.352;4.808;2023-07-30T08:29:53;101031.84;;;16.92;72.74
81704;BME280;71117;52.352;4.808;2023-07-30T08:32:18;101036.22;;;17.07;72.32
81704;BME280;71117;52.352;4.808;2023-07-30T08:34:44;101033.56;;;17.04;72.65
81704;BME280;71117;52.352;4.808;2023-07-30T08:37:09;101034.44;;;17.05;72.25
81704;BME280;71117;52.352;4.808;2023-07-30T08:39:34;101039.88;;;16.91;71.67
81704;BME280;71117;52.352;4.808;2023-07-30T08:42:00;101035.44;;;16.90;72.20
81704;BME280;71117;52.352;4.808;2023-07-30T08:44:25;101036.28;;;17.01;71.54
81704;BME280;71117;52.352;4.808;2023-07-30T08:46:51;101033.47;;;17.16;72.01
81704;BME280;71117;52.352;4.808;2023-07-30T08:49:16;101044.16;;;17.19;72.42
81704;BME280;71117;52.352;4.808;2023-07-30T08:51:42;101037.94;;;17.17;72.52
81704;BME280;71117;52.352;4.808;2023-07-30T08:54:11;101038.81;;;17.19;70.76
81704;BME280;71117;52.352;4.808;2023-07-30T08:56:37;101037.88;;;17.30;71.64
81704;BME280;71117;52.352;4.808;2023-07-30T08:59:03;101046.78;;;17.23;68.96
81704;BME280;71117;52.352;4.808;2023-07-30T09:01:32;101051.19;;;17.34;69.61
81704;BME280;71117;52.352;4.808;2023-07-30T09:04:00;101058.19;;;17.48;67.92
81704;BME280;71117;52.352;4.808;2023-07-30T09:06:26;101057.31;;;17.47;68.89
81704;BME280;71117;52.352;4.808;2023-07-30T09:08:51;101057.34;;;17.45;67.65
81704;BME280;71117;52.352;4.808;2023-07-30T09:11:16;101063.53;;;17.48;68.49
81704;BME280;71117;52.352;4.808;2023-07-30T09:13:42;101058.25;;;17.40;67.23
81704;BME280;71117;52.352;4.808;2023-07-30T09:16:11;101057.34;;;17.42;69.16
81704;BME280;71117;52.352;4.808;2023-07-30T09:21:05;101058.28;;;17.32;70.41
81704;BME280;71117;52.352;4.808;2023-07-30T09:23:31;101060.81;;;17.51;69.81
81704;BME280;71117;52.352;4.808;2023-07-30T09:25:58;101062.94;;;18.18;68.37
81704;BME280;71117;52.352;4.808;2023-07-30T09:28:30;101051.25;;;18.30;66.21
81704;BME280;71117;52.352;4.808;2023-07-30T09:31:04;101066.91;;;18.62;65.80
81704;BME280;71117;52.352;4.808;2023-07-30T09:33:31;101067.25;;;19.08;66.33
81704;BME280;71117;52.352;4.808;2023-07-30T09:35:57;101077.06;;;19.08;65.88
81704;BME280;71117;52.352;4.808;2023-07-30T09:38:23;101087.03;;;18.98;62.63
81704;BME280;71117;52.352;4.808;2023-07-30T09:40:49;101077.47;;;19.40;61.51
81704;BME280;71117;52.352;4.808;2023-07-30T09:43:15;101104.34;;;19.34;59.25
81704;BME280;71117;52.352;4.808;2023-07-30T09:45:44;101075.06;;;19.84;57.25
81704;BME280;71117;52.352;4.808;2023-07-30T09:48:11;101079.66;;;19.75;57.10
81704;BME280;71117;52.352;4.808;2023-07-30T09:50:37;101084.44;;;20.09;56.35
81704;BME280;71117;52.352;4.808;2023-07-30T09:53:03;101101.59;;;20.50;56.49
81704;BME280;71117;52.352;4.808;2023-07-30T09:55:29;101098.03;;;20.93;54.51
81704;BME280;71117;52.352;4.808;2023-07-30T09:57:54;101099.91;;;20.43;54.68
81704;BME280;71117;52.352;4.808;2023-07-30T10:00:20;101099.88;;;20.46;55.00
81704;BME280;71117;52.352;4.808;2023-07-30T10:02:46;101095.19;;;20.09;56.60
81704;BME280;71117;52.352;4.808;2023-07-30T10:05:19;101106.31;;;19.83;58.68
81704;BME280;71117;52.352;4.808;2023-07-30T10:07:59;101111.03;;;19.67;58.16
81704;BME280;71117;52.352;4.808;2023-07-30T10:10:27;101105.81;;;20.12;59.11
81704;BME280;71117;52.352;4.808;2023-07-30T10:12:55;101113.09;;;20.05;57.03
81704;BME280;71117;52.352;4.808;2023-07-30T10:15:21;101121.31;;;19.95;56.64
81704;BME280;71117;52.352;4.808;2023-07-30T10:17:50;101107.09;;;19.90;56.86
81704;BME280;71117;52.352;4.808;2023-07-30T10:20:26;101114.88;;;20.06;57.33
81704;BME280;71117;52.352;4.808;2023-07-30T10:22:56;101106.91;;;20.02;55.76
81704;BME280;71117;52.352;4.808;2023-07-30T10:25:29;101111.34;;;20.04;55.49
81704;BME280;71117;52.352;4.808;2023-07-30T10:27:55;101128.97;;;20.18;56.23
81704;BME280;71117;52.352;4.808;2023-07-30T10:30:21;101106.78;;;20.08;56.49
81704;BME280;71117;52.352;4.808;2023-07-30T10:35:43;101121.34;;;20.44;56.81
81704;BME280;71117;52.352;4.808;2023-07-30T10:38:17;101118.63;;;20.47;56.41
81704;BME280;71117;52.352;4.808;2023-07-30T10:41:00;101126.56;;;20.53;56.56
81704;BME280;71117;52.352;4.808;2023-07-30T10:43:47;101131.78;;;20.61;55.85
81704;BME280;71117;52.352;4.808;2023-07-30T10:46:14;101139.56;;;20.76;54.83
81704;BME280;71117;52.352;4.808;2023-07-30T10:48:42;101124.69;;;21.02;55.09
81704;BME280;71117;52.352;4.808;2023-07-30T10:51:15;101125.78;;;20.92;55.92
81704;BME280;71117;52.352;4.808;2023-07-30T10:53:45;101129.50;;;20.88;55.08
81704;BME280;71117;52.352;4.808;2023-07-30T10:56:11;101132.63;;;20.63;55.41
81704;BME280;71117;52.352;4.808;2023-07-30T10:58:37;101138.84;;;20.67;54.64
81704;BME280;71117;52.352;4.808;2023-07-30T11:01:04;101138.63;;;20.77;55.48
81704;BME280;71117;52.352;4.808;2023-07-30T11:03:30;101134.47;;;21.06;53.22
81704;BME280;71117;52.352;4.808;2023-07-30T11:05:56;101131.03;;;20.99;54.26
81704;BME280;71117;52.352;4.808;2023-07-30T11:08:36;101149.91;;;20.93;55.22
81704;BME280;71117;52.352;4.808;2023-07-30T11:11:02;101144.63;;;20.90;53.97
81704;BME280;71117;52.352;4.808;2023-07-30T11:13:27;101121.13;;;21.01;54.70
81704;BME280;71117;52.352;4.808;2023-07-30T11:15:53;101125.47;;;21.49;53.13
81704;BME280;71117;52.352;4.808;2023-07-30T11:18:19;101142.13;;;21.64;53.02
81704;BME280;71117;52.352;4.808;2023-07-30T11:20:44;101153.22;;;21.51;53.03
81704;BME280;71117;52.352;4.808;2023-07-30T11:23:22;101146.66;;;21.22;53.41
81704;BME280;71117;52.352;4.808;2023-07-30T11:25:49;101130.41;;;21.28;52.96
81704;BME280;71117;52.352;4.808;2023-07-30T11:28:26;101131.13;;;21.36;54.35
81704;BME280;71117;52.352;4.808;2023-07-30T11:30:52;101141.78;;;21.80;51.74
81704;BME280;71117;52.352;4.808;2023-07-30T11:33:18;101148.50;;;23.00;50.82
81704;BME280;71117;52.352;4.808;2023-07-30T11:35:44;101130.41;;;24.45;46.12
81704;BME280;71117;52.352;4.808;2023-07-30T11:38:09;101156.56;;;23.61;47.55
81704;BME280;71117;52.352;4.808;2023-07-30T11:40:35;101140.31;;;24.95;45.02
81704;BME280;71117;52.352;4.808;2023-07-30T11:43:02;101140.59;;;25.12;42.13
81704;BME280;71117;52.352;4.808;2023-07-30T11:45:29;101164.47;;;24.99;43.10
81704;BME280;71117;52.352;4.808;2023-07-30T11:48:05;101167.81;;;25.31;42.71
81704;BME280;71117;52.352;4.808;2023-07-30T11:51:05;101160.81;;;25.00;43.53
81704;BME280;71117;52.352;4.808;2023-07-30T11:53:57;101183.66;;;24.14;44.83
81704;BME280;71117;52.352;4.808;2023-07-30T11:56:31;101172.16;;;24.35;45.13
81704;BME280;71117;52.352;4.808;2023-07-30T11:59:01;101165.41;;;24.73;44.10
81704;BME280;71117;52.352;4.808;2023-07-30T12:01:31;101159.47;;;25.37;42.03
81704;BME280;71117;52.352;4.808;2023-07-30T12:04:00;101163.53;;;25.25;41.59
81704;BME280;71117;52.352;4.808;2023-07-30T12:09:14;101159.88;;;25.01;43.86
81704;BME280;71117;52.352;4.808;2023-07-30T12:11:57;101169.13;;;24.71;44.47
81704;BME280;71117;52.352;4.808;2023-07-30T12:14:24;101181.94;;;23.83;45.98
81704;BME280;71117;52.352;4.808;2023-07-30T12:16:56;101200.56;;;24.47;44.39
81704;BME280;71117;52.352;4.808;2023-07-30T12:19:21;101191.22;;;24.02;43.86
81704;BME280;71117;52.352;4.808;2023-07-30T12:21:47;101206.25;;;25.39;41.45
81704;BME280;71117;52.352;4.808;2023-07-30T12:24:12;101187.28;;;26.08;40.48
81704;BME280;71117;52.352;4.808;2023-07-30T12:26:37;101170.63;;;25.51;40.41
81704;BME280;71117;52.352;4.808;2023-07-30T12:29:03;101180.81;;;26.12;40.32
81704;BME280;71117;52.352;4.808;2023-07-30T12:31:28;101184.44;;;25.44;42.67
81704;BME280;71117;52.352;4.808;2023-07-30T12:33:55;101178.63;;;25.54;38.79
81704;BME280;71117;52.352;4.808;2023-07-30T12:36:20;101194.31;;;24.45;42.16
81704;BME280;71117;52.352;4.808;2023-07-30T12:38:45;101200.34;;;23.98;44.21
81704;BME280;71117;52.352;4.808;2023-07-30T12:41:11;101188.69;;;23.39;46.45
81704;BME280;71117;52.352;4.808;2023-07-30T12:43:36;101197.66;;;24.78;45.47
81704;BME280;71117;52.352;4.808;2023-07-30T12:46:01;101208.41;;;24.79;44.94
81704;BME280;71117;52.352;4.808;2023-07-30T12:48:27;101204.84;;;24.26;42.43
81704;BME280;71117;52.352;4.808;2023-07-30T12:50:52;101188.19;;;25.16;42.81
81704;BME280;71117;52.352;4.808;2023-07-30T12:53:18;101198.19;;;24.63;42.57
81704;BME280;71117;52.352;4.808;2023-07-30T12:55:43;101194.25;;;23.64;44.79
81704;BME280;71117;52.352;4.808;2023-07-30T12:58:08;101196.78;;;23.70;45.58